sensor_id;sensor_type;location;lat;lon;timestamp;pressure;altitude;pressure_sealevel;temperature;humidity
38912;BME280;28444;48.056;14.408;2022-12-29T00:01:58;97700.81;;;-0.40;97.17
38912;BME280;28444;48.056;14.408;2022-12-29T00:04:25;97703.00;;;-0.44;97.31
38912;BME280;28444;48.056;14.408;2022-12-29T00:06:52;97703.00;;;-0.50;97.59
38912;BME280;28444;48.056;14.408;2022-12-29T00:09:19;97702.75;;;-0.46;97.65
38912;BME280;28444;48.056;14.408;2022-12-29T00:11:46;97705.41;;;-0.52;98.81
38912;BME280;28444;48.056;14.408;2022-12-29T00:14:12;97694.44;;;-0.49;98.95
38912;BME280;28444;48.056;14.408;2022-12-29T00:16:57;97693.44;;;-0.51;97.81
38912;BME280;28444;48.056;14.408;2022-12-29T00:19:24;97689.31;;;-0.46;98.17
38912;BME280;28444;48.056;14.408;2022-12-29T00:22:11;97688.59;;;-0.47;97.86
38912;BME280;28444;48.056;14.408;2022-12-29T00:24:57;97684.44;;;-0.37;97.00
38912;BME280;28444;48.056;14.408;2022-12-29T00:27:43;97683.94;;;-0.41;97.43
38912;BME280;28444;48.056;14.408;2022-12-29T00:30:33;97670.53;;;-0.35;97.11
38912;BME280;28444;48.056;14.408;2022-12-29T00:33:20;97676.94;;;-0.21;97.54
38912;BME280;28444;48.056;14.408;2022-12-29T00:36:32;97680.34;;;-0.21;97.31
38912;BME280;28444;48.056;14.408;2022-12-29T00:39:04;97678.38;;;-0.26;95.86
38912;BME280;28444;48.056;14.408;2022-12-29T00:41:51;97669.84;;;-0.25;95.48
38912;BME280;28444;48.056;14.408;2022-12-29T00:44:37;97665.19;;;-0.18;95.38
38912;BME280;28444;48.056;14.408;2022-12-29T00:47:03;97667.41;;;-0.06;94.89
38912;BME280;28444;48.056;14.408;2022-12-29T00:49:31;97673.28;;;-0.13;95.22
38912;BME280;28444;48.056;14.408;2022-12-29T00:52:06;97671.78;;;-0.19;95.09
38912;BME280;28444;48.056;14.408;2022-12-29T00:54:35;97669.34;;;-0.23;94.92
38912;BME280;28444;48.056;14.408;2022-12-29T00:57:03;97657.13;;;-0.24;95.77
38912;BME280;28444;48.056;14.408;2022-12-29T00:59:30;97659.56;;;-0.20;97.04
38912;BME280;28444;48.056;14.408;2022-12-29T01:01:56;97649.31;;;-0.16;96.19
38912;BME280;28444;48.056;14.408;2022-12-29T01:04:25;97649.53;;;-0.26;96.06
38912;BME280;28444;48.056;14.408;2022-12-29T01:06:52;97647.34;;;-0.27;96.03
38912;BME280;28444;48.056;14.408;2022-12-29T01:09:19;97640.25;;;-0.36;96.52
38912;BME280;28444;48.056;14.408;2022-12-29T01:12:05;97643.91;;;-0.33;97.68
38912;BME280;28444;48.056;14.408;2022-12-29T01:14:33;97647.34;;;-0.16;96.74
38912;BME280;28444;48.056;14.408;2022-12-29T01:16:59;97647.09;;;-0.12;96.49
38912;BME280;28444;48.056;14.408;2022-12-29T01:19:26;97647.34;;;-0.05;96.06
38912;BME280;28444;48.056;14.408;2022-12-29T01:21:53;97649.56;;;-0.14;95.57
38912;BME280;28444;48.056;14.408;2022-12-29T01:24:20;97653.22;;;-0.17;94.83
38912;BME280;28444;48.056;14.408;2022-12-29T01:26:47;97659.81;;;-0.18;95.65
38912;BME280;28444;48.056;14.408;2022-12-29T01:29:14;97657.56;;;-0.37;95.25
38912;BME280;28444;48.056;14.408;2022-12-29T01:31:42;97655.63;;;-0.36;95.39
38912;BME280;28444;48.056;14.408;2022-12-29T01:34:09;97661.50;;;-0.32;96.21
38912;BME280;28444;48.056;14.408;2022-12-29T01:36:35;97665.88;;;-0.29;95.50
38912;BME280;28444;48.056;14.408;2022-12-29T01:39:02;97655.66;;;-0.25;95.65
38912;BME280;28444;48.056;14.408;2022-12-29T01:41:29;97653.44;;;-0.27;95.39
38912;BME280;28444;48.056;14.408;2022-12-29T01:43:57;97657.34;;;-0.33;94.85
38912;BME280;28444;48.056;14.408;2022-12-29T01:46:37;97652.94;;;-0.31;94.02
38912;BME280;28444;48.056;14.408;2022-12-29T01:49:12;97646.59;;;-0.28;94.25
38912;BME280;28444;48.056;14.408;2022-12-29T01:51:46;97652.50;;;-0.18;94.87
38912;BME280;28444;48.056;14.408;2022-12-29T01:54:22;97640.50;;;-0.11;94.96
38912;BME280;28444;48.056;14.408;2022-12-29T01:56:51;97637.81;;;-0.11;94.49
38912;BME280;28444;48.056;14.408;2022-12-29T01:59:22;97638.81;;;-0.14;93.94
38912;BME280;28444;48.056;14.408;2022-12-29T02:01:51;97632.19;;;-0.08;95.49
38912;BME280;28444;48.056;14.408;2022-12-29T02:04:17;97630.50;;;-0.05;94.53
38912;BME280;28444;48.056;14.408;2022-12-29T02:06:53;97625.88;;;0.01;94.49
38912;BME280;28444;48.056;14.408;2022-12-29T02:09:22;97620.00;;;-0.03;94.49
38912;BME280;28444;48.056;14.408;2022-12-29T02:11:50;97623.88;;;0.07;94.50
38912;BME280;28444;48.056;14.408;2022-12-29T02:14:17;97618.53;;;0.02;94.22
38912;BME280;28444;48.056;14.408;2022-12-29T02:17:01;97614.63;;;-0.03;93.19
38912;BME280;28444;48.056;14.408;2022-12-29T02:24:23;97613.63;;;-0.11;93.31
38912;BME280;28444;48.056;14.408;2022-12-29T02:26:40;97610.69;;;-0.25;93.84
38912;BME280;28444;48.056;14.408;2022-12-29T02:38:31;97603.59;;;-0.28;94.27
38912;BME280;28444;48.056;14.408;2022-12-29T02:41:09;97602.38;;;-0.27;94.11
38912;BME280;28444;48.056;14.408;2022-12-29T02:46:51;97606.50;;;-0.37;93.53
38912;BME280;28444;48.056;14.408;2022-12-29T02:49:45;97609.22;;;-0.31;93.68
38912;BME280;28444;48.056;14.408;2022-12-29T02:52:18;97606.28;;;-0.28;93.65
38912;BME280;28444;48.056;14.408;2022-12-29T02:54:48;97594.31;;;-0.27;93.25
38912;BME280;28444;48.056;14.408;2022-12-29T02:57:36;97596.28;;;-0.27;93.53
38912;BME280;28444;48.056;14.408;2022-12-29T03:00:16;97602.84;;;-0.22;93.58
38912;BME280;28444;48.056;14.408;2022-12-29T03:03:05;97596.03;;;-0.23;93.36
38912;BME280;28444;48.056;14.408;2022-12-29T03:05:45;97594.56;;;-0.25;92.89
38912;BME280;28444;48.056;14.408;2022-12-29T03:08:51;97595.53;;;-0.33;93.03
38912;BME280;28444;48.056;14.408;2022-12-29T03:11:25;97590.63;;;-0.35;93.25
38912;BME280;28444;48.056;14.408;2022-12-29T03:14:20;97585.50;;;-0.38;93.22
38912;BME280;28444;48.056;14.408;2022-12-29T03:17:21;97589.16;;;-0.47;93.65
38912;BME280;28444;48.056;14.408;2022-12-29T03:19:58;97583.78;;;-0.47;94.59
38912;BME280;28444;48.056;14.408;2022-12-29T03:22:29;97570.84;;;-0.54;94.18
38912;BME280;28444;48.056;14.408;2022-12-29T03:25:09;97583.53;;;-0.49;94.33
38912;BME280;28444;48.056;14.408;2022-12-29T03:27:44;97574.50;;;-0.57;94.85
38912;BME280;28444;48.056;14.408;2022-12-29T03:30:12;97582.78;;;-0.55;94.14
38912;BME280;28444;48.056;14.408;2022-12-29T03:32:44;97577.66;;;-0.53;93.73
38912;BME280;28444;48.056;14.408;2022-12-29T03:35:15;97574.47;;;-0.52;93.88
38912;BME280;28444;48.056;14.408;2022-12-29T03:37:55;97583.28;;;-0.51;93.70
38912;BME280;28444;48.056;14.408;2022-12-29T03:40:26;97585.72;;;-0.53;93.77
38912;BME280;28444;48.056;14.408;2022-12-29T03:42:54;97581.06;;;-0.64;94.33
38912;BME280;28444;48.056;14.408;2022-12-29T03:45:21;97580.34;;;-0.64;95.66
38912;BME280;28444;48.056;14.408;2022-12-29T03:47:48;97582.75;;;-0.66;95.25
38912;BME280;28444;48.056;14.408;2022-12-29T03:50:15;97584.00;;;-0.67;95.13
38912;BME280;28444;48.056;14.408;2022-12-29T03:52:43;97575.94;;;-0.67;94.82
38912;BME280;28444;48.056;14.408;2022-12-29T03:55:10;97577.66;;;-0.64;95.07
38912;BME280;28444;48.056;14.408;2022-12-29T03:57:37;97584.75;;;-0.61;94.87
38912;BME280;28444;48.056;14.408;2022-12-29T04:00:05;97575.44;;;-0.66;94.74
38912;BME280;28444;48.056;14.408;2022-12-29T04:02:32;97570.53;;;-0.73;95.11
38912;BME280;28444;48.056;14.408;2022-12-29T04:04:59;97575.91;;;-0.73;95.59
38912;BME280;28444;48.056;14.408;2022-12-29T04:07:26;97567.84;;;-0.73;95.11
38912;BME280;28444;48.056;14.408;2022-12-29T04:09:52;97565.09;;;-1.01;95.94
38912;BME280;28444;48.056;14.408;2022-12-29T04:12:19;97572.91;;;-1.03;97.34
38912;BME280;28444;48.056;14.408;2022-12-29T04:14:46;97570.22;;;-1.09;97.31
38912;BME280;28444;48.056;14.408;2022-12-29T04:17:12;97567.03;;;-1.07;97.88
38912;BME280;28444;48.056;14.408;2022-12-29T04:19:39;97559.75;;;-1.01;98.08
38912;BME280;28444;48.056;14.408;2022-12-29T04:22:06;97571.44;;;-0.99;98.41
38912;BME280;28444;48.056;14.408;2022-12-29T04:24:32;97574.63;;;-1.00;98.47
38912;BME280;28444;48.056;14.408;2022-12-29T04:26:59;97573.34;;;-1.16;99.13
38912;BME280;28444;48.056;14.408;2022-12-29T04:29:25;97578.47;;;-1.18;99.76
38912;BME280;28444;48.056;14.408;2022-12-29T04:31:52;97580.38;;;-1.24;99.61
38912;BME280;28444;48.056;14.408;2022-12-29T04:34:19;97584.78;;;-1.21;99.83
38912;BME280;28444;48.056;14.408;2022-12-29T04:36:45;97589.22;;;-1.12;99.47
38912;BME280;28444;48.056;14.408;2022-12-29T04:39:12;97589.41;;;-1.22;99.45
38912;BME280;28444;48.056;14.408;2022-12-29T04:41:39;97583.34;;;-1.16;99.41
38912;BME280;28444;48.056;14.408;2022-12-29T04:44:06;97592.66;;;-1.12;98.74
38912;BME280;28444;48.056;14.408;2022-12-29T04:46:32;97591.38;;;-1.16;98.55
38912;BME280;28444;48.056;14.408;2022-12-29T04:48:59;97592.88;;;-1.15;98.40
38912;BME280;28444;48.056;14.408;2022-12-29T04:51:30;97596.03;;;-1.17;98.87
38912;BME280;28444;48.056;14.408;2022-12-29T04:53:57;97597.78;;;-1.03;99.06
38912;BME280;28444;48.056;14.408;2022-12-29T04:56:24;97598.75;;;-1.06;98.98
38912;BME280;28444;48.056;14.408;2022-12-29T04:58:50;97602.41;;;-1.09;98.99
38912;BME280;28444;48.056;14.408;2022-12-29T05:01:17;97602.16;;;-1.11;98.49
38912;BME280;28444;48.056;14.408;2022-12-29T05:03:44;97605.34;;;-1.07;99.96
38912;BME280;28444;48.056;14.408;2022-12-29T05:06:10;97613.44;;;-1.01;100.00
38912;BME280;28444;48.056;14.408;2022-12-29T05:08:37;97610.03;;;-0.96;100.00
38912;BME280;28444;48.056;14.408;2022-12-29T05:11:04;97609.56;;;-0.89;100.00
38912;BME280;28444;48.056;14.408;2022-12-29T05:13:31;97614.38;;;-1.04;100.00
38912;BME280;28444;48.056;14.408;2022-12-29T05:15:58;97614.84;;;-1.06;99.72
38912;BME280;28444;48.056;14.408;2022-12-29T05:18:25;97618.53;;;-1.09;99.31
38912;BME280;28444;48.056;14.408;2022-12-29T05:20:52;97615.56;;;-1.11;99.82
38912;BME280;28444;48.056;14.408;2022-12-29T05:23:19;97618.22;;;-1.16;99.87
38912;BME280;28444;48.056;14.408;2022-12-29T05:25:46;97613.16;;;-1.09;99.27
38912;BME280;28444;48.056;14.408;2022-12-29T05:28:13;97602.66;;;-1.12;99.15
38912;BME280;28444;48.056;14.408;2022-12-29T05:30:40;97603.16;;;-1.08;99.63
38912;BME280;28444;48.056;14.408;2022-12-29T05:33:06;97599.69;;;-1.14;98.86
38912;BME280;28444;48.056;14.408;2022-12-29T05:35:33;97605.06;;;-1.14;99.31
38912;BME280;28444;48.056;14.408;2022-12-29T05:38:00;97602.66;;;-1.12;99.83
38912;BME280;28444;48.056;14.408;2022-12-29T05:40:26;97596.78;;;-1.11;99.65
38912;BME280;28444;48.056;14.408;2022-12-29T05:42:53;97588.22;;;-1.15;100.00
38912;BME280;28444;48.056;14.408;2022-12-29T05:45:19;97593.59;;;-1.15;100.00
38912;BME280;28444;48.056;14.408;2022-12-29T05:47:46;97590.44;;;-1.13;100.00
38912;BME280;28444;48.056;14.408;2022-12-29T05:50:13;97584.81;;;-1.15;100.00
38912;BME280;28444;48.056;14.408;2022-12-29T05:52:39;97582.63;;;-1.11;100.00
38912;BME280;28444;48.056;14.408;2022-12-29T05:55:06;97578.22;;;-1.14;99.97
38912;BME280;28444;48.056;14.408;2022-12-29T05:57:33;97582.38;;;-1.19;100.00
38912;BME280;28444;48.056;14.408;2022-12-29T06:00:00;97577.22;;;-1.17;99.70
38912;BME280;28444;48.056;14.408;2022-12-29T06:02:26;97570.44;;;-1.12;99.19
38912;BME280;28444;48.056;14.408;2022-12-29T06:04:53;97578.50;;;-1.07;99.24
38912;BME280;28444;48.056;14.408;2022-12-29T06:07:20;97572.41;;;-1.07;98.73
38912;BME280;28444;48.056;14.408;2022-12-29T06:09:47;97565.56;;;-1.08;98.63
38912;BME280;28444;48.056;14.408;2022-12-29T06:12:13;97565.34;;;-0.99;99.12
38912;BME280;28444;48.056;14.408;2022-12-29T06:14:40;97568.25;;;-1.03;98.66
38912;BME280;28444;48.056;14.408;2022-12-29T06:17:06;97571.94;;;-1.00;98.47
38912;BME280;28444;48.056;14.408;2022-12-29T06:19:33;97568.75;;;-0.99;97.69
38912;BME280;28444;48.056;14.408;2022-12-29T06:21:59;97569.50;;;-0.98;98.10
38912;BME280;28444;48.056;14.408;2022-12-29T06:24:26;97571.94;;;-1.00;97.85
38912;BME280;28444;48.056;14.408;2022-12-29T06:26:53;97561.47;;;-0.98;98.35
38912;BME280;28444;48.056;14.408;2022-12-29T06:29:19;97555.34;;;-1.04;98.32
38912;BME280;28444;48.056;14.408;2022-12-29T06:31:47;97553.88;;;-1.05;98.00
38912;BME280;28444;48.056;14.408;2022-12-29T06:34:15;97547.97;;;-1.15;99.51
38912;BME280;28444;48.056;14.408;2022-12-29T06:36:42;97552.34;;;-1.17;99.98
38912;BME280;28444;48.056;14.408;2022-12-29T06:39:10;97544.31;;;-1.12;98.30
38912;BME280;28444;48.056;14.408;2022-12-29T06:41:36;97538.63;;;-1.36;97.78
38912;BME280;28444;48.056;14.408;2022-12-29T06:44:04;97534.94;;;-1.44;98.42
38912;BME280;28444;48.056;14.408;2022-12-29T06:46:30;97538.81;;;-1.46;99.60
38912;BME280;28444;48.056;14.408;2022-12-29T06:48:57;97543.91;;;-1.53;100.00
38912;BME280;28444;48.056;14.408;2022-12-29T06:51:24;97536.63;;;-1.47;100.00
38912;BME280;28444;48.056;14.408;2022-12-29T06:53:50;97538.06;;;-1.46;100.00
38912;BME280;28444;48.056;14.408;2022-12-29T06:56:17;97547.09;;;-1.49;100.00
38912;BME280;28444;48.056;14.408;2022-12-29T06:58:43;97549.06;;;-1.44;99.75
38912;BME280;28444;48.056;14.408;2022-12-29T07:01:10;97544.50;;;-1.75;99.58
38912;BME280;28444;48.056;14.408;2022-12-29T07:03:37;97551.81;;;-1.76;100.00
38912;BME280;28444;48.056;14.408;2022-12-29T07:06:04;97569.66;;;-1.73;100.00
38912;BME280;28444;48.056;14.408;2022-12-29T07:08:31;97570.16;;;-1.68;100.00
38912;BME280;28444;48.056;14.408;2022-12-29T07:10:57;97558.25;;;-1.62;100.00
38912;BME280;28444;48.056;14.408;2022-12-29T07:13:24;97563.38;;;-1.58;100.00
38912;BME280;28444;48.056;14.408;2022-12-29T07:15:50;97560.00;;;-1.53;100.00
38912;BME280;28444;48.056;14.408;2022-12-29T07:18:17;97564.00;;;-1.37;100.00
38912;BME280;28444;48.056;14.408;2022-12-29T07:20:44;97575.03;;;-1.18;99.88
38912;BME280;28444;48.056;14.408;2022-12-29T07:23:11;97567.19;;;-1.28;99.27
38912;BME280;28444;48.056;14.408;2022-12-29T07:25:37;97570.13;;;-1.20;99.34
38912;BME280;28444;48.056;14.408;2022-12-29T07:28:06;97556.56;;;-1.05;98.93
38912;BME280;28444;48.056;14.408;2022-12-29T07:30:36;97557.56;;;-0.97;99.51
38912;BME280;28444;48.056;14.408;2022-12-29T07:33:03;97548.31;;;-0.90;99.37
38912;BME280;28444;48.056;14.408;2022-12-29T07:35:30;97554.63;;;-0.88;100.00
38912;BME280;28444;48.056;14.408;2022-12-29T07:37:57;97538.81;;;-0.75;99.46
38912;BME280;28444;48.056;14.408;2022-12-29T07:40:23;97557.13;;;-0.67;99.24
38912;BME280;28444;48.056;14.408;2022-12-29T07:42:50;97558.63;;;-0.61;99.19
38912;BME280;28444;48.056;14.408;2022-12-29T07:45:16;97554.47;;;-0.56;99.10
38912;BME280;28444;48.056;14.408;2022-12-29T07:47:43;97563.53;;;-0.42;99.20
38912;BME280;28444;48.056;14.408;2022-12-29T07:50:10;97555.69;;;-0.40;98.02
38912;BME280;28444;48.056;14.408;2022-12-29T07:52:36;97579.16;;;-0.30;96.98
38912;BME280;28444;48.056;14.408;2022-12-29T07:55:03;97571.81;;;-0.40;97.21
38912;BME280;28444;48.056;14.408;2022-12-29T07:57:30;97570.84;;;-0.43;97.03
38912;BME280;28444;48.056;14.408;2022-12-29T07:59:58;97567.44;;;-0.43;97.28
38912;BME280;28444;48.056;14.408;2022-12-29T08:02:24;97572.06;;;-0.38;98.20
38912;BME280;28444;48.056;14.408;2022-12-29T08:04:52;97551.06;;;-0.34;98.08
38912;BME280;28444;48.056;14.408;2022-12-29T08:07:19;97571.09;;;-0.35;98.99
38912;BME280;28444;48.056;14.408;2022-12-29T08:09:46;97570.84;;;-0.37;98.18
38912;BME280;28444;48.056;14.408;2022-12-29T08:12:12;97557.88;;;-0.44;98.18
38912;BME280;28444;48.056;14.408;2022-12-29T08:14:39;97555.19;;;-0.44;99.47
38912;BME280;28444;48.056;14.408;2022-12-29T08:17:05;97561.34;;;-0.33;99.82
38912;BME280;28444;48.056;14.408;2022-12-29T08:19:32;97558.41;;;-0.18;99.45
38912;BME280;28444;48.056;14.408;2022-12-29T08:21:59;97547.88;;;-0.16;98.87
38912;BME280;28444;48.056;14.408;2022-12-29T08:24:25;97554.97;;;-0.13;99.10
38912;BME280;28444;48.056;14.408;2022-12-29T08:26:52;97558.41;;;-0.07;98.36
38912;BME280;28444;48.056;14.408;2022-12-29T08:29:19;97567.44;;;0.02;98.67
38912;BME280;28444;48.056;14.408;2022-12-29T08:31:47;97565.47;;;0.13;97.57
38912;BME280;28444;48.056;14.408;2022-12-29T08:34:14;97567.16;;;0.16;97.71
38912;BME280;28444;48.056;14.408;2022-12-29T08:36:40;97575.50;;;0.18;96.80
38912;BME280;28444;48.056;14.408;2022-12-29T08:39:07;97567.16;;;0.28;96.79
38912;BME280;28444;48.056;14.408;2022-12-29T08:41:34;97563.19;;;0.45;96.94
38912;BME280;28444;48.056;14.408;2022-12-29T08:44:00;97559.75;;;0.51;96.31
38912;BME280;28444;48.056;14.408;2022-12-29T08:46:27;97568.59;;;0.51;96.44
38912;BME280;28444;48.056;14.408;2022-12-29T08:48:54;97573.47;;;0.53;96.26
38912;BME280;28444;48.056;14.408;2022-12-29T08:51:20;97576.88;;;0.59;96.41
38912;BME280;28444;48.056;14.408;2022-12-29T08:53:50;97574.66;;;0.57;96.91
38912;BME280;28444;48.056;14.408;2022-12-29T08:56:17;97570.22;;;0.77;95.41
38912;BME280;28444;48.056;14.408;2022-12-29T08:58:43;97569.72;;;0.84;94.87
38912;BME280;28444;48.056;14.408;2022-12-29T09:01:10;97577.06;;;0.78;95.12
38912;BME280;28444;48.056;14.408;2022-12-29T09:03:37;97575.09;;;0.84;94.53
38912;BME280;28444;48.056;14.408;2022-12-29T09:06:23;97577.28;;;0.80;94.58
38912;BME280;28444;48.056;14.408;2022-12-29T09:08:50;97579.25;;;0.79;95.62
38912;BME280;28444;48.056;14.408;2022-12-29T09:11:21;97581.94;;;0.85;94.88
38912;BME280;28444;48.056;14.408;2022-12-29T09:13:48;97590.22;;;0.98;94.02
38912;BME280;28444;48.056;14.408;2022-12-29T09:16:16;97594.38;;;0.99;93.71
38912;BME280;28444;48.056;14.408;2022-12-29T09:18:43;97600.22;;;1.03;93.53
38912;BME280;28444;48.056;14.408;2022-12-29T09:21:11;97593.53;;;1.15;93.19
38912;BME280;28444;48.056;14.408;2022-12-29T09:23:38;97592.56;;;1.18;93.44
38912;BME280;28444;48.056;14.408;2022-12-29T09:26:05;97590.56;;;1.25;93.18
38912;BME280;28444;48.056;14.408;2022-12-29T09:28:31;97589.31;;;1.31;94.16
38912;BME280;28444;48.056;14.408;2022-12-29T09:30:59;97594.66;;;1.42;93.13
38912;BME280;28444;48.056;14.408;2022-12-29T09:33:26;97595.84;;;1.41;92.74
38912;BME280;28444;48.056;14.408;2022-12-29T09:35:55;97593.22;;;1.30;92.15
38912;BME280;28444;48.056;14.408;2022-12-29T09:38:24;97588.63;;;1.25;93.62
38912;BME280;28444;48.056;14.408;2022-12-29T09:40:54;97599.38;;;1.31;94.08
38912;BME280;28444;48.056;14.408;2022-12-29T09:46:26;97578.59;;;1.61;92.79
38912;BME280;28444;48.056;14.408;2022-12-29T09:51:55;97584.34;;;1.82;91.52
38912;BME280;28444;48.056;14.408;2022-12-29T09:54:48;97583.72;;;2.01;90.19
38912;BME280;28444;48.056;14.408;2022-12-29T09:57:56;97579.19;;;2.14;89.80
38912;BME280;28444;48.056;14.408;2022-12-29T10:00:36;97578.53;;;2.33;89.01
38912;BME280;28444;48.056;14.408;2022-12-29T10:03:15;97569.31;;;2.47;87.48
38912;BME280;28444;48.056;14.408;2022-12-29T10:05:50;97572.66;;;2.53;88.08
38912;BME280;28444;48.056;14.408;2022-12-29T10:09:29;97572.09;;;2.60;87.88
38912;BME280;28444;48.056;14.408;2022-12-29T10:12:14;97568.19;;;2.61;88.46
38912;BME280;28444;48.056;14.408;2022-12-29T10:18:08;97581.97;;;2.58;87.74
38912;BME280;28444;48.056;14.408;2022-12-29T10:21:13;97568.34;;;2.69;87.24
38912;BME280;28444;48.056;14.408;2022-12-29T10:23:51;97552.06;;;2.75;87.54
38912;BME280;28444;48.056;14.408;2022-12-29T10:26:25;97544.09;;;2.82;88.18
38912;BME280;28444;48.056;14.408;2022-12-29T10:28:57;97546.06;;;2.82;88.12
38912;BME280;28444;48.056;14.408;2022-12-29T10:31:35;97538.25;;;2.78;88.39
38912;BME280;28444;48.056;14.408;2022-12-29T10:34:15;97533.38;;;2.77;88.07
38912;BME280;28444;48.056;14.408;2022-12-29T10:36:46;97526.56;;;2.70;88.47
38912;BME280;28444;48.056;14.408;2022-12-29T10:39:33;97529.34;;;2.64;89.09
38912;BME280;28444;48.056;14.408;2022-12-29T10:42:28;97517.81;;;2.64;90.01
38912;BME280;28444;48.056;14.408;2022-12-29T10:44:55;97504.31;;;2.83;90.13
38912;BME280;28444;48.056;14.408;2022-12-29T10:47:25;97512.66;;;2.85;90.54
38912;BME280;28444;48.056;14.408;2022-12-29T10:49:53;97503.97;;;2.92;90.24
38912;BME280;28444;48.056;14.408;2022-12-29T10:52:22;97509.28;;;2.98;90.70
38912;BME280;28444;48.056;14.408;2022-12-29T10:55:03;97507.47;;;3.06;89.69
38912;BME280;28444;48.056;14.408;2022-12-29T10:57:40;97524.59;;;3.08;89.43
38912;BME280;28444;48.056;14.408;2022-12-29T11:00:21;97520.41;;;3.13;87.71
38912;BME280;28444;48.056;14.408;2022-12-29T11:05:58;97523.31;;;3.15;87.35
38912;BME280;28444;48.056;14.408;2022-12-29T11:08:33;97521.78;;;3.20;87.38
38912;BME280;28444;48.056;14.408;2022-12-29T11:11:07;97529.81;;;3.06;88.18
38912;BME280;28444;48.056;14.408;2022-12-29T11:13:35;97524.91;;;3.05;87.99
38912;BME280;28444;48.056;14.408;2022-12-29T11:16:05;97520.09;;;2.98;88.42
38912;BME280;28444;48.056;14.408;2022-12-29T11:18:36;97517.19;;;2.96;87.67
38912;BME280;28444;48.056;14.408;2022-12-29T11:21:33;97517.69;;;2.94;88.44
38912;BME280;28444;48.056;14.408;2022-12-29T11:24:03;97518.47;;;2.89;89.30
38912;BME280;28444;48.056;14.408;2022-12-29T11:26:31;97502.38;;;2.83;89.27
38912;BME280;28444;48.056;14.408;2022-12-29T11:29:16;97505.13;;;2.78;90.59
38912;BME280;28444;48.056;14.408;2022-12-29T11:31:46;97503.66;;;2.77;90.38
38912;BME280;28444;48.056;14.408;2022-12-29T11:34:33;97502.13;;;2.62;91.26
38912;BME280;28444;48.056;14.408;2022-12-29T11:37:27;97501.84;;;2.66;90.73
38912;BME280;28444;48.056;14.408;2022-12-29T11:40:03;97506.28;;;2.63;91.34
38912;BME280;28444;48.056;14.408;2022-12-29T11:42:41;97508.97;;;2.63;91.49
38912;BME280;28444;48.056;14.408;2022-12-29T11:45:21;97510.44;;;2.64;90.85
38912;BME280;28444;48.056;14.408;2022-12-29T11:47:52;97501.84;;;2.66;91.64
38912;BME280;28444;48.056;14.408;2022-12-29T11:50:22;97501.75;;;2.72;91.73
38912;BME280;28444;48.056;14.408;2022-12-29T11:55:27;97497.09;;;2.91;92.16
38912;BME280;28444;48.056;14.408;2022-12-29T11:57:55;97488.72;;;2.95;91.83
38912;BME280;28444;48.056;14.408;2022-12-29T12:00:24;97484.97;;;2.98;91.21
38912;BME280;28444;48.056;14.408;2022-12-29T12:03:22;97481.91;;;3.07;91.12
38912;BME280;28444;48.056;14.408;2022-12-29T12:05:56;97473.94;;;3.14;90.67
38912;BME280;28444;48.056;14.408;2022-12-29T12:08:41;97471.66;;;3.19;90.33
38912;BME280;28444;48.056;14.408;2022-12-29T12:11:14;97474.91;;;3.30;90.43
38912;BME280;28444;48.056;14.408;2022-12-29T12:13:51;97477.78;;;3.38;89.80
38912;BME280;28444;48.056;14.408;2022-12-29T12:16:25;97473.66;;;3.50;89.50
38912;BME280;28444;48.056;14.408;2022-12-29T12:19:13;97461.88;;;3.48;89.22
38912;BME280;28444;48.056;14.408;2022-12-29T12:21:43;97449.09;;;3.48;89.07
38912;BME280;28444;48.056;14.408;2022-12-29T12:27:31;97439.88;;;3.57;88.40
38912;BME280;28444;48.056;14.408;2022-12-29T12:30:07;97433.94;;;3.58;88.71
38912;BME280;28444;48.056;14.408;2022-12-29T12:33:00;97433.84;;;3.64;88.96
38912;BME280;28444;48.056;14.408;2022-12-29T12:36:14;97423.88;;;3.72;88.59
38912;BME280;28444;48.056;14.408;2022-12-29T12:39:25;97430.53;;;3.84;87.60
38912;BME280;28444;48.056;14.408;2022-12-29T12:45:06;97431.88;;;3.91;88.10
38912;BME280;28444;48.056;14.408;2022-12-29T12:48:29;97411.50;;;3.90;87.78
38912;BME280;28444;48.056;14.408;2022-12-29T12:51:14;97407.75;;;3.93;87.88
38912;BME280;28444;48.056;14.408;2022-12-29T12:53:52;97409.50;;;3.91;88.10
38912;BME280;28444;48.056;14.408;2022-12-29T13:00:01;97410.88;;;3.97;88.24
38912;BME280;28444;48.056;14.408;2022-12-29T13:02:46;97406.41;;;4.00;88.19
38912;BME280;28444;48.056;14.408;2022-12-29T13:09:18;97415.75;;;4.12;87.22
38912;BME280;28444;48.056;14.408;2022-12-29T13:12:04;97404.41;;;4.27;86.30
38912;BME280;28444;48.056;14.408;2022-12-29T13:15:04;97405.44;;;4.24;87.06
38912;BME280;28444;48.056;14.408;2022-12-29T13:18:13;97407.75;;;4.20;87.10
38912;BME280;28444;48.056;14.408;2022-12-29T13:20:52;97411.06;;;4.13;87.28
38912;BME280;28444;48.056;14.408;2022-12-29T13:23:41;97411.50;;;4.03;87.53
38912;BME280;28444;48.056;14.408;2022-12-29T13:26:35;97409.19;;;3.94;87.66
38912;BME280;28444;48.056;14.408;2022-12-29T13:30:10;97414.19;;;3.77;89.05
38912;BME280;28444;48.056;14.408;2022-12-29T13:33:10;97420.53;;;3.79;89.51
38912;BME280;28444;48.056;14.408;2022-12-29T13:35:57;97421.06;;;3.91;88.77
38912;BME280;28444;48.056;14.408;2022-12-29T13:38:31;97420.25;;;3.96;88.64
38912;BME280;28444;48.056;14.408;2022-12-29T13:41:47;97427.19;;;3.92;88.68
38912;BME280;28444;48.056;14.408;2022-12-29T13:44:05;97432.19;;;3.88;89.16
38912;BME280;28444;48.056;14.408;2022-12-29T13:46:38;97423.25;;;3.93;89.40
38912;BME280;28444;48.056;14.408;2022-12-29T13:49:32;97416.19;;;3.90;89.21
38912;BME280;28444;48.056;14.408;2022-12-29T13:52:09;97431.47;;;3.87;89.74
38912;BME280;28444;48.056;14.408;2022-12-29T13:57:41;97425.94;;;3.79;90.03
38912;BME280;28444;48.056;14.408;2022-12-29T14:00:16;97430.72;;;3.73;89.93
38912;BME280;28444;48.056;14.408;2022-12-29T14:03:11;97427.81;;;3.71;90.29
38912;BME280;28444;48.056;14.408;2022-12-29T14:05:45;97434.16;;;3.74;90.27
38912;BME280;28444;48.056;14.408;2022-12-29T14:08:16;97439.38;;;3.72;90.60
38912;BME280;28444;48.056;14.408;2022-12-29T14:10:51;97435.94;;;3.71;90.50
38912;BME280;28444;48.056;14.408;2022-12-29T14:13:20;97440.19;;;3.80;90.33